logo
Rechercher aéroport 
image banner adimage banner adimage banner ad
image banner ad

FLLR - Luelo

Situé à , Zambia

ICAO - , IATA -

Données fournies par Airmate  

Information générale

Coordonnées: S11°53'2" E32°33'50"
Élévation : 2088 feet MSL.
 
Voir autres Aéroports à Northern Province

Données opérationnelles

Special qualification required
Heure actuelle UTC:
Heure actuelle locale:
Météo à : - ( 0 km )
METAR: UBBN 251642Z 12014KT 9999 SCT046CB BKN100 27/15 Q1001 NOSIG
Voir NOTAMs / SUP AIP / TFR affectant cet aéroport [VIEW]
Fréquences de communication: [VIEW]

Pistes:

Coordonnées de l'aéroport

Adresse: Zambia

Vue satellite de FLLR